KBLU/BLU METAR and TAF weather

Enter ICAO airport designator
Station Type Date Time Source
KBLU METAR 2021/02/28 02:52 UTC NOAA

KBLU 280252Z AUTO 05007KT 10SM CLR 02/M12 A3013 RMK AO2 SLP212 T00171117 53008


Station Type Date Time Source
KBLU Decoded METAR 2021/02/28 02:52 UTC NOAA

BLUE CANYON AIRPORT, CA, United States (KBLU) 39-17N 120-42W 1609M
Feb 27, 2021 - 09:52 PM EST / 2021.02.28 0252 UTC
Wind: from the NE (050 degrees) at 8 MPH (7 KT):0
Visibility: 10 mile(s):0
Sky conditions: clear
Temperature: 35.1 F (1.7 C)
Dew Point: 10.9 F (-11.7 C)
Relative Humidity: 36%
Pressure (altimeter): 30.13 in. Hg (1020 hPa)
Pressure tendency: 0.02 inches (0.8 hPa) higher than three hours ago
ob: KBLU 280252Z AUTO 05007KT 10SM CLR 02/M12 A3013 RMK AO2 SLP212 T00171117 53008
cycle: 3

Station Type Date Time Source
KBLU TAF UTC NOAA

Error!

Example: see airport list